createdAt,value
2022-10-29T00:01:19.620Z,3.00
2022-10-29T00:03:51.223Z,3.00
2022-10-29T00:06:22.238Z,2.00
2022-10-29T00:08:52.044Z,2.00
2022-10-29T00:11:24.401Z,1.50
2022-10-29T00:14:02.076Z,1.75
2022-10-29T00:16:37.409Z,2.50
2022-10-29T00:19:09.609Z,2.25
2022-10-29T00:21:40.444Z,1.75
2022-10-29T00:24:12.808Z,2.00
2022-10-29T00:26:43.734Z,2.25
2022-10-29T00:29:13.067Z,2.00
2022-10-29T00:31:45.224Z,1.00
2022-10-29T00:34:15.355Z,0.25
2022-10-29T00:36:46.405Z,2.50
2022-10-29T00:39:21.130Z,2.50
2022-10-29T00:41:51.835Z,2.00
2022-10-29T00:44:22.163Z,2.00
2022-10-29T00:47:41.563Z,1.00
2022-10-29T00:50:15.077Z,4.25
2022-10-29T00:52:49.765Z,2.75
2022-10-29T00:55:21.173Z,3.50
2022-10-29T00:57:57.295Z,6.75
2022-10-29T01:00:26.827Z,12.00
2022-10-29T01:03:05.596Z,15.75
2022-10-29T01:05:43.284Z,19.00
2022-10-29T01:08:16.373Z,16.75
2022-10-29T01:11:04.114Z,2.75
2022-10-29T01:13:50.462Z,0.50
2022-10-29T01:16:30.677Z,1.00
2022-10-29T01:19:37.754Z,1.50
2022-10-29T01:22:36.474Z,0.00
2022-10-29T01:25:35.409Z,1.00
2022-10-29T01:28:24.018Z,0.50
2022-10-29T01:31:42.015Z,1.00
2022-10-29T01:34:26.229Z,0.25
2022-10-29T01:37:06.280Z,0.50
2022-10-29T01:39:41.536Z,0.50
2022-10-29T01:42:24.285Z,0.50
2022-10-29T01:45:04.972Z,0.75
2022-10-29T01:47:42.976Z,0.50
2022-10-29T01:50:19.217Z,0.00
2022-10-29T01:52:54.926Z,1.00
2022-10-29T01:55:33.402Z,0.00
2022-10-29T01:58:05.182Z,0.50
2022-10-29T02:01:18.763Z,0.75
2022-10-29T02:03:57.606Z,0.00
2022-10-29T02:06:57.914Z,0.00
2022-10-29T02:09:56.447Z,0.00
2022-10-29T02:12:57.452Z,0.00
2022-10-29T02:15:51.144Z,0.00
2022-10-29T02:18:23.597Z,0.00
2022-10-29T02:20:55.439Z,0.00
2022-10-29T02:23:30.972Z,0.00
2022-10-29T02:26:01.582Z,0.00
2022-10-29T02:28:34.550Z,0.50
2022-10-29T02:31:05.040Z,0.00
2022-10-29T02:33:36.906Z,0.00
2022-10-29T02:36:08.934Z,0.00
2022-10-29T02:38:40.614Z,0.00
2022-10-29T02:41:15.566Z,0.00
2022-10-29T02:43:46.112Z,0.00
2022-10-29T02:46:20.817Z,0.25
2022-10-29T02:48:52.721Z,0.50
2022-10-29T02:51:23.690Z,0.00
2022-10-29T02:53:55.382Z,0.00
2022-10-29T02:56:28.364Z,0.00
2022-10-29T02:59:02.701Z,0.25
2022-10-29T03:01:34.430Z,0.50
2022-10-29T03:04:04.084Z,1.00
2022-10-29T03:06:34.875Z,0.00
2022-10-29T03:09:07.618Z,0.25
2022-10-29T03:11:42.176Z,0.00
2022-10-29T03:14:12.272Z,0.50
2022-10-29T03:16:42.095Z,0.50
2022-10-29T03:19:13.039Z,1.00
2022-10-29T03:21:42.687Z,0.00
2022-10-29T03:24:16.743Z,0.75
2022-10-29T03:26:47.971Z,1.00
2022-10-29T03:29:21.394Z,0.75
2022-10-29T03:31:53.454Z,0.00
2022-10-29T03:34:29.291Z,0.50
2022-10-29T03:37:01.903Z,0.50
2022-10-29T03:39:35.765Z,1.00
2022-10-29T03:42:06.890Z,0.00
2022-10-29T03:44:38.576Z,1.75
2022-10-29T03:47:10.436Z,0.00
2022-10-29T03:49:42.537Z,0.50
2022-10-29T03:52:15.350Z,0.00
2022-10-29T03:54:45.323Z,0.50
2022-10-29T03:57:15.233Z,0.50
2022-10-29T03:59:49.896Z,0.75
2022-10-29T04:02:21.909Z,0.25
2022-10-29T04:04:54.058Z,0.50
2022-10-29T04:07:29.164Z,1.00
2022-10-29T04:10:04.988Z,0.00
2022-10-29T04:12:39.152Z,0.00
2022-10-29T04:15:11.143Z,1.00
2022-10-29T04:17:43.215Z,3.00
2022-10-29T04:20:29.725Z,15.00
2022-10-29T04:25:14.340Z,15.25
2022-10-29T04:28:53.930Z,2.75
2022-10-29T04:31:25.665Z,2.00
2022-10-29T04:33:57.887Z,14.75
2022-10-29T04:36:27.890Z,17.50
2022-10-29T04:39:01.796Z,12.75
2022-10-29T04:41:32.180Z,9.75
2022-10-29T04:44:04.772Z,1.75
2022-10-29T04:46:35.105Z,7.00
2022-10-29T04:49:08.441Z,0.75
2022-10-29T04:51:37.774Z,0.00
2022-10-29T04:54:08.743Z,0.00
2022-10-29T04:56:39.574Z,0.00
2022-10-29T04:59:13.034Z,0.00
2022-10-29T05:01:45.770Z,2.00
2022-10-29T05:04:17.611Z,0.25
2022-10-29T05:06:47.970Z,6.25
2022-10-29T05:09:20.527Z,1.00
2022-10-29T05:11:51.998Z,0.00
2022-10-29T05:14:23.005Z,0.25
2022-10-29T05:16:54.824Z,0.25
2022-10-29T05:19:25.765Z,6.00
2022-10-29T05:21:56.554Z,6.00
2022-10-29T05:24:29.533Z,7.25
2022-10-29T05:27:03.561Z,10.25
2022-10-29T05:29:36.807Z,3.00
2022-10-29T05:32:07.087Z,5.00
2022-10-29T05:34:38.462Z,1.00
2022-10-29T05:37:10.780Z,0.25
2022-10-29T05:39:43.299Z,0.00
2022-10-29T05:42:13.837Z,0.00
2022-10-29T05:44:43.826Z,0.00
2022-10-29T05:47:13.610Z,0.00
2022-10-29T05:49:43.638Z,0.00
2022-10-29T05:52:14.353Z,0.00
2022-10-29T05:54:45.811Z,0.00
2022-10-29T05:57:18.840Z,0.00
2022-10-29T05:59:48.405Z,0.00
2022-10-29T06:02:19.638Z,0.00
2022-10-29T06:04:52.509Z,0.00
2022-10-29T06:07:23.973Z,0.50
2022-10-29T06:09:57.176Z,11.75
2022-10-29T06:12:32.493Z,2.50
2022-10-29T06:15:06.001Z,1.00
2022-10-29T06:17:45.799Z,0.75
2022-10-29T06:20:19.131Z,15.50
2022-10-29T06:22:58.252Z,0.25
2022-10-29T06:25:29.321Z,0.00
2022-10-29T06:28:13.397Z,0.00
2022-10-29T06:30:47.209Z,0.00
2022-10-29T06:33:21.449Z,13.25
2022-10-29T06:35:51.606Z,27.50
2022-10-29T06:38:21.586Z,24.75
2022-10-29T06:41:14.065Z,28.00
2022-10-29T06:43:45.046Z,35.50
2022-10-29T06:46:14.333Z,36.50
2022-10-29T06:48:48.311Z,33.25
2022-10-29T06:51:20.294Z,31.25
2022-10-29T06:53:51.258Z,34.75
2022-10-29T06:56:23.543Z,34.50
2022-10-29T06:58:55.736Z,14.75
2022-10-29T07:01:31.720Z,22.75
2022-10-29T07:04:05.229Z,26.50
2022-10-29T07:06:38.008Z,28.25
2022-10-29T07:09:07.611Z,35.67
2022-10-29T07:11:39.852Z,34.50
2022-10-29T07:14:12.906Z,42.00
2022-10-29T07:16:48.396Z,42.75
2022-10-29T07:19:18.047Z,43.00
2022-10-29T07:21:52.316Z,1.00
2022-10-29T07:24:27.039Z,0.75
2022-10-29T07:26:57.617Z,2.75
2022-10-29T07:29:28.471Z,33.00
2022-10-29T07:31:59.112Z,9.50
2022-10-29T07:34:29.228Z,57.33
2022-10-29T07:37:00.438Z,58.67
2022-10-29T07:42:04.244Z,49.33
2022-10-29T07:44:35.411Z,58.67
2022-10-29T07:47:05.637Z,51.00
2022-10-29T07:49:38.238Z,53.67
2022-10-29T07:52:10.184Z,53.67
2022-10-29T07:54:39.364Z,47.00
2022-10-29T07:57:12.773Z,52.00
2022-10-29T07:59:44.998Z,28.67
2022-10-29T08:02:15.380Z,23.67
2022-10-29T08:04:47.046Z,28.00
2022-10-29T08:07:20.023Z,34.00
2022-10-29T08:09:50.023Z,36.67
2022-10-29T08:12:22.111Z,39.33
2022-10-29T08:14:52.922Z,56.00
2022-10-29T08:17:22.681Z,62.00
2022-10-29T08:19:53.785Z,59.33
2022-10-29T08:22:28.269Z,53.33
2022-10-29T08:24:58.308Z,56.00
2022-10-29T08:27:29.440Z,52.00
2022-10-29T08:30:00.276Z,51.33
2022-10-29T08:32:32.110Z,55.33
2022-10-29T08:35:01.614Z,22.50
2022-10-29T08:37:34.224Z,20.00
2022-10-29T08:40:04.876Z,53.33
2022-10-29T08:43:23.714Z,54.33
2022-10-29T08:45:58.424Z,41.25
2022-10-29T08:48:58.367Z,51.33
2022-10-29T08:51:38.598Z,45.00
2022-10-29T08:54:30.285Z,52.00
2022-10-29T08:57:10.165Z,47.00
2022-10-29T09:00:02.650Z,49.67
2022-10-29T09:02:32.088Z,47.67
2022-10-29T09:05:02.777Z,51.33
2022-10-29T09:07:54.424Z,55.33
2022-10-29T09:10:49.779Z,55.00
2022-10-29T09:13:34.923Z,52.75
2022-10-29T09:16:14.148Z,52.67
2022-10-29T09:19:09.554Z,52.67
2022-10-29T09:22:14.716Z,50.25
2022-10-29T09:25:16.735Z,18.00
2022-10-29T09:28:03.091Z,1.00
2022-10-29T09:30:38.514Z,1.00
2022-10-29T09:33:20.691Z,1.50
2022-10-29T09:35:56.147Z,2.00
2022-10-29T09:38:28.283Z,1.00
2022-10-29T09:41:01.332Z,2.00
2022-10-29T09:43:50.291Z,2.00
2022-10-29T09:46:40.583Z,2.25
2022-10-29T09:49:25.163Z,2.00
2022-10-29T09:52:29.963Z,2.00
2022-10-29T09:55:02.310Z,3.00
2022-10-29T09:57:39.984Z,2.00
2022-10-29T10:00:23.763Z,2.00
2022-10-29T10:03:10.436Z,3.00
2022-10-29T10:06:00.324Z,3.00
2022-10-29T10:08:35.199Z,4.25
2022-10-29T10:11:08.806Z,3.50
2022-10-29T10:13:52.435Z,3.00
2022-10-29T10:16:29.585Z,4.25
2022-10-29T10:19:04.937Z,4.00
2022-10-29T10:21:41.846Z,7.00
2022-10-29T10:24:42.862Z,4.50
2022-10-29T10:27:22.431Z,4.00
2022-10-29T10:30:12.345Z,5.00
2022-10-29T10:32:41.822Z,5.50
2022-10-29T10:35:45.518Z,4.75
2022-10-29T10:38:16.465Z,5.00
2022-10-29T10:41:02.580Z,3.25
2022-10-29T10:43:32.037Z,4.00
2022-10-29T10:46:12.874Z,2.00
2022-10-29T10:48:43.780Z,4.00
2022-10-29T10:51:22.354Z,3.00
2022-10-29T10:53:53.485Z,4.00
2022-10-29T10:56:26.191Z,3.75
2022-10-29T10:59:08.426Z,1.25
2022-10-29T11:01:49.701Z,5.00
2022-10-29T11:04:33.242Z,4.25
2022-10-29T11:07:08.146Z,2.00
2022-10-29T11:09:50.547Z,4.25
2022-10-29T11:12:45.792Z,5.25
2022-10-29T11:16:14.246Z,4.00
2022-10-29T11:19:21.118Z,3.00
2022-10-29T11:22:02.531Z,3.00
2022-10-29T11:24:44.815Z,4.00
2022-10-29T11:27:40.314Z,3.75
2022-10-29T11:30:20.057Z,5.00
2022-10-29T11:36:02.187Z,5.00
2022-10-29T11:38:54.073Z,4.00
2022-10-29T11:42:08.124Z,4.75
2022-10-29T11:44:42.774Z,4.00
2022-10-29T11:47:33.708Z,5.00
2022-10-29T11:50:04.800Z,4.50
2022-10-29T11:52:38.326Z,4.00
2022-10-29T11:55:55.242Z,3.25
2022-10-29T11:58:59.256Z,3.50
2022-10-29T12:02:07.956Z,3.50
2022-10-29T12:04:47.700Z,4.50
2022-10-29T12:07:43.661Z,3.00
2022-10-29T12:10:33.755Z,4.50
2022-10-29T12:13:22.841Z,4.00
2022-10-29T12:16:04.756Z,3.00
2022-10-29T12:18:51.711Z,3.50
2022-10-29T12:21:40.266Z,4.00
2022-10-29T12:24:31.201Z,4.00
2022-10-29T12:27:12.172Z,1.50
2022-10-29T12:29:56.148Z,6.50
2022-10-29T12:32:53.940Z,5.00
2022-10-29T12:35:34.267Z,5.75
2022-10-29T12:38:19.163Z,6.00
2022-10-29T12:40:53.654Z,6.00
2022-10-29T12:43:33.642Z,9.00
2022-10-29T12:46:20.098Z,6.00
2022-10-29T12:49:18.465Z,6.50
2022-10-29T12:52:00.201Z,7.00
2022-10-29T12:54:39.894Z,9.00
2022-10-29T12:57:17.756Z,7.00
2022-10-29T12:59:51.333Z,4.50
2022-10-29T13:02:48.306Z,9.50
2022-10-29T13:05:21.148Z,10.00
2022-10-29T13:07:52.412Z,9.00
2022-10-29T13:10:30.933Z,7.75
2022-10-29T13:13:17.761Z,8.75
2022-10-29T13:16:01.112Z,9.00
2022-10-29T13:19:06.397Z,5.75
2022-10-29T13:22:05.714Z,8.50
2022-10-29T13:24:40.649Z,8.25
2022-10-29T13:27:20.658Z,9.00
2022-10-29T13:30:13.316Z,8.00
2022-10-29T13:32:42.717Z,10.25
2022-10-29T13:35:22.662Z,9.00
2022-10-29T13:38:04.374Z,8.25
2022-10-29T13:40:34.350Z,10.75
2022-10-29T13:43:11.245Z,9.75
2022-10-29T13:45:50.150Z,8.75
2022-10-29T13:48:54.416Z,10.00
2022-10-29T13:51:45.589Z,7.25
2022-10-29T13:54:32.042Z,9.25
2022-10-29T13:57:05.093Z,11.50
2022-10-29T13:59:59.792Z,9.00
2022-10-29T14:02:46.721Z,8.75
2022-10-29T14:05:33.047Z,6.50
2022-10-29T14:08:10.892Z,10.00
2022-10-29T14:10:43.345Z,7.50
2022-10-29T14:13:19.202Z,9.00
2022-10-29T14:16:13.598Z,9.50
2022-10-29T14:18:52.657Z,8.00
2022-10-29T14:21:34.759Z,7.00
2022-10-29T14:24:08.697Z,10.75
2022-10-29T14:26:41.025Z,8.00
2022-10-29T14:29:17.499Z,6.75
2022-10-29T14:31:48.584Z,8.00
2022-10-29T14:34:31.916Z,6.00
2022-10-29T14:37:15.434Z,8.50
2022-10-29T14:39:58.861Z,8.75
2022-10-29T14:42:36.249Z,10.00
2022-10-29T14:45:31.124Z,9.50
2022-10-29T14:48:16.987Z,11.25
2022-10-29T14:50:58.679Z,7.75
2022-10-29T14:53:32.750Z,8.75
2022-10-29T14:56:12.381Z,7.00
2022-10-29T14:58:49.136Z,9.00
2022-10-29T15:01:21.906Z,5.25
2022-10-29T15:04:03.505Z,8.25
2022-10-29T15:06:33.205Z,7.25
2022-10-29T15:09:09.071Z,7.00
2022-10-29T15:11:59.539Z,15.25
2022-10-29T15:14:49.143Z,18.75
2022-10-29T15:17:29.400Z,19.00
2022-10-29T15:20:09.542Z,28.25
2022-10-29T15:22:53.714Z,26.25
2022-10-29T15:25:40.449Z,25.25
2022-10-29T15:28:13.147Z,27.50
2022-10-29T15:30:43.815Z,28.50
2022-10-29T15:33:29.237Z,28.00
2022-10-29T15:36:05.910Z,28.25
2022-10-29T15:38:52.331Z,27.00
2022-10-29T15:41:39.672Z,29.50
2022-10-29T15:44:32.605Z,29.00
2022-10-29T15:47:18.444Z,23.50
2022-10-29T15:49:50.987Z,28.25
2022-10-29T15:52:22.464Z,26.75
2022-10-29T15:54:58.438Z,24.00
2022-10-29T15:57:29.142Z,23.50
2022-10-29T16:00:11.571Z,25.00
2022-10-29T16:02:44.529Z,23.75
2022-10-29T16:05:18.102Z,24.25
2022-10-29T16:07:49.635Z,20.75
2022-10-29T16:10:22.749Z,19.50
2022-10-29T16:12:53.655Z,21.25
2022-10-29T16:18:03.914Z,16.75
2022-10-29T16:20:34.237Z,16.75
2022-10-29T16:23:05.957Z,3.00
2022-10-29T16:25:35.489Z,2.25
2022-10-29T16:28:06.614Z,5.25
2022-10-29T16:33:17.139Z,0.00
2022-10-29T16:35:48.235Z,4.75
2022-10-29T16:38:19.674Z,4.50
2022-10-29T16:40:51.613Z,3.00
2022-10-29T16:43:23.210Z,2.25
2022-10-29T16:46:04.179Z,4.00
2022-10-29T16:48:40.464Z,2.25
2022-10-29T16:51:12.934Z,1.50
2022-10-29T16:53:47.832Z,3.00
2022-10-29T16:56:19.601Z,2.00
2022-10-29T16:58:52.067Z,0.75
2022-10-29T17:01:23.110Z,3.00
2022-10-29T17:03:54.644Z,1.00
2022-10-29T17:06:24.488Z,2.00
2022-10-29T17:09:02.666Z,2.75
2022-10-29T17:11:33.139Z,1.50
2022-10-29T17:14:13.112Z,13.75
2022-10-29T17:16:43.275Z,22.75
2022-10-29T17:19:12.705Z,25.00
2022-10-29T17:21:46.436Z,15.00
2022-10-29T17:24:22.215Z,11.00
2022-10-29T17:26:53.006Z,4.25
2022-10-29T17:29:24.160Z,4.75
2022-10-29T17:32:00.785Z,4.75
2022-10-29T17:34:33.695Z,4.25
2022-10-29T17:37:08.881Z,3.25
2022-10-29T17:39:47.977Z,4.25
2022-10-29T17:42:20.567Z,1.50
2022-10-29T17:44:54.408Z,1.00
2022-10-29T17:47:24.815Z,2.00
2022-10-29T17:50:06.387Z,2.00
2022-10-29T17:52:37.519Z,1.00
2022-10-29T17:55:08.188Z,2.50
2022-10-29T17:57:42.627Z,2.00
2022-10-29T18:00:13.443Z,1.67
2022-10-29T18:02:46.325Z,2.33
2022-10-29T18:05:20.623Z,2.00
2022-10-29T18:07:51.383Z,3.00
2022-10-29T18:10:23.599Z,3.00
2022-10-29T18:12:59.943Z,2.00
2022-10-29T18:15:30.215Z,2.00
2022-10-29T18:18:01.516Z,2.00
2022-10-29T18:20:34.731Z,2.00
2022-10-29T18:23:05.573Z,3.50
2022-10-29T18:25:38.571Z,2.00
2022-10-29T18:28:08.290Z,3.00
2022-10-29T18:30:39.088Z,3.00
2022-10-29T18:35:41.362Z,2.00
2022-10-29T18:38:13.998Z,2.00
2022-10-29T18:40:45.958Z,2.33
2022-10-29T18:43:23.765Z,3.00
2022-10-29T18:46:02.250Z,2.33
2022-10-29T18:48:33.787Z,2.00
2022-10-29T18:51:09.779Z,4.00
2022-10-29T18:53:40.953Z,2.00
2022-10-29T18:56:17.178Z,2.00
2022-10-29T18:58:48.018Z,2.00
2022-10-29T19:01:21.455Z,1.00
2022-10-29T19:03:57.349Z,3.33
2022-10-29T19:06:30.353Z,4.00
2022-10-29T19:09:06.745Z,2.33
2022-10-29T19:11:39.413Z,4.00
2022-10-29T19:14:16.549Z,3.00
2022-10-29T19:16:46.262Z,3.00
2022-10-29T19:19:18.453Z,3.33
2022-10-29T19:21:52.288Z,3.00
2022-10-29T19:24:28.646Z,3.00
2022-10-29T19:27:04.412Z,3.00
2022-10-29T19:29:34.637Z,3.00
2022-10-29T19:32:05.039Z,3.00
2022-10-29T19:34:36.440Z,2.00
2022-10-29T19:37:05.905Z,2.67
2022-10-29T19:39:37.442Z,4.00
2022-10-29T19:42:20.713Z,3.00
2022-10-29T19:44:55.317Z,3.67
2022-10-29T19:47:28.198Z,3.00
2022-10-29T19:50:00.673Z,1.00
2022-10-29T19:52:34.764Z,3.00
2022-10-29T19:55:05.920Z,3.00
2022-10-29T19:57:44.123Z,4.67
2022-10-29T20:00:17.757Z,3.67
2022-10-29T20:02:48.304Z,3.33
2022-10-29T20:05:19.670Z,4.00
2022-10-29T20:07:55.577Z,2.00
2022-10-29T20:10:25.710Z,3.33
2022-10-29T20:12:57.507Z,3.00
2022-10-29T20:15:28.710Z,4.67
2022-10-29T20:18:01.399Z,3.00
2022-10-29T20:20:32.240Z,2.67
2022-10-29T20:23:03.273Z,1.00
2022-10-29T20:25:32.755Z,3.67
2022-10-29T20:28:03.565Z,4.00
2022-10-29T20:30:35.828Z,3.33
2022-10-29T20:33:08.467Z,4.00
2022-10-29T20:35:38.461Z,3.33
2022-10-29T20:38:10.060Z,3.33
2022-10-29T20:40:44.717Z,3.00
2022-10-29T20:43:15.240Z,3.00
2022-10-29T20:45:46.496Z,4.00
2022-10-29T20:48:16.785Z,3.67
2022-10-29T20:50:53.885Z,3.00
2022-10-29T20:53:25.413Z,3.00
